sensor_id;sensor_type;location;lat;lon;timestamp;pressure;altitude;pressure_sealevel;temperature;humidity
67397;BME280;57728;50.448;18.824;2022-09-16T00:01:57;96884.72;;;12.34;80.08
67397;BME280;57728;50.448;18.824;2022-09-16T00:03:59;96893.28;;;12.36;79.67
67397;BME280;57728;50.448;18.824;2022-09-16T00:06:00;96891.38;;;12.37;79.46
67397;BME280;57728;50.448;18.824;2022-09-16T00:08:01;96895.19;;;12.36;78.83
67397;BME280;57728;50.448;18.824;2022-09-16T00:10:04;96902.50;;;12.35;78.98
67397;BME280;57728;50.448;18.824;2022-09-16T00:12:06;96893.47;;;12.31;79.09
67397;BME280;57728;50.448;18.824;2022-09-16T00:14:08;96903.94;;;12.32;78.87
67397;BME280;57728;50.448;18.824;2022-09-16T00:16:16;96901.56;;;12.31;79.05
67397;BME280;57728;50.448;18.824;2022-09-16T00:18:19;96906.63;;;12.32;78.94
67397;BME280;57728;50.448;18.824;2022-09-16T00:20:21;96895.81;;;12.32;78.44
67397;BME280;57728;50.448;18.824;2022-09-16T00:22:23;96909.03;;;12.34;78.46
67397;BME280;57728;50.448;18.824;2022-09-16T00:24:24;96900.59;;;12.36;78.09
67397;BME280;57728;50.448;18.824;2022-09-16T00:26:25;96903.28;;;12.36;77.94
67397;BME280;57728;50.448;18.824;2022-09-16T00:28:27;96914.09;;;12.36;77.64
67397;BME280;57728;50.448;18.824;2022-09-16T00:30:29;96912.69;;;12.38;77.83
67397;BME280;57728;50.448;18.824;2022-09-16T00:32:30;96911.09;;;12.37;77.31
67397;BME280;57728;50.448;18.824;2022-09-16T00:34:32;96907.28;;;12.38;77.24
67397;BME280;57728;50.448;18.824;2022-09-16T00:36:33;96906.94;;;12.40;77.10
67397;BME280;57728;50.448;18.824;2022-09-16T00:38:34;96908.53;;;12.41;76.99
67397;BME280;57728;50.448;18.824;2022-09-16T00:40:46;96908.22;;;12.42;76.97
67397;BME280;57728;50.448;18.824;2022-09-16T00:42:49;96907.75;;;12.40;77.02
67397;BME280;57728;50.448;18.824;2022-09-16T00:44:56;96911.88;;;12.38;76.99
67397;BME280;57728;50.448;18.824;2022-09-16T00:47:03;96909.50;;;12.36;76.98
67397;BME280;57728;50.448;18.824;2022-09-16T00:49:14;96913.31;;;12.35;77.08
67397;BME280;57728;50.448;18.824;2022-09-16T00:51:19;96912.53;;;12.35;77.14
67397;BME280;57728;50.448;18.824;2022-09-16T00:53:28;96913.31;;;12.35;76.96
67397;BME280;57728;50.448;18.824;2022-09-16T00:55:36;96911.41;;;12.36;76.84
67397;BME280;57728;50.448;18.824;2022-09-16T00:57:40;96909.50;;;12.36;76.59
67397;BME280;57728;50.448;18.824;2022-09-16T00:59:48;96888.38;;;12.21;76.16
67397;BME280;57728;50.448;18.824;2022-09-16T01:01:57;96910.94;;;12.33;76.47
67397;BME280;57728;50.448;18.824;2022-09-16T01:04:34;96902.84;;;12.33;76.36
67397;BME280;57728;50.448;18.824;2022-09-16T01:06:44;96903.63;;;12.34;76.60
67397;BME280;57728;50.448;18.824;2022-09-16T01:08:48;96907.91;;;12.35;75.99
67397;BME280;57728;50.448;18.824;2022-09-16T01:10:50;96908.53;;;12.32;76.20
67397;BME280;57728;50.448;18.824;2022-09-16T01:13:13;96903.78;;;12.29;76.26
67397;BME280;57728;50.448;18.824;2022-09-16T01:15:15;96902.53;;;12.26;76.73
67397;BME280;57728;50.448;18.824;2022-09-16T01:25:45;96919.81;;;12.17;76.84
67397;BME280;57728;50.448;18.824;2022-09-16T01:33:49;96908.06;;;12.04;78.78
67397;BME280;57728;50.448;18.824;2022-09-16T01:38:51;96915.53;;;11.98;79.82
67397;BME280;57728;50.448;18.824;2022-09-16T01:43:23;96912.22;;;11.93;80.32
67397;BME280;57728;50.448;18.824;2022-09-16T01:48:16;96920.94;;;11.90;81.37
67397;BME280;57728;50.448;18.824;2022-09-16T01:50:42;96906.31;;;11.82;81.68
67397;BME280;57728;50.448;18.824;2022-09-16T01:55:09;96921.06;;;11.76;81.71
67397;BME280;57728;50.448;18.824;2022-09-16T01:59:45;96928.94;;;11.64;82.57
67397;BME280;57728;50.448;18.824;2022-09-16T02:02:20;96924.66;;;11.63;82.90
67397;BME280;57728;50.448;18.824;2022-09-16T02:04:35;96930.84;;;11.63;83.22
67397;BME280;57728;50.448;18.824;2022-09-16T02:06:44;96929.72;;;11.64;83.41
67397;BME280;57728;50.448;18.824;2022-09-16T02:08:57;96927.84;;;11.65;83.62
67397;BME280;57728;50.448;18.824;2022-09-16T02:11:07;96919.59;;;11.61;83.18
67397;BME280;57728;50.448;18.824;2022-09-16T02:13:21;96921.97;;;11.63;83.36
67397;BME280;57728;50.448;18.824;2022-09-16T02:15:32;96941.97;;;11.70;83.32
67397;BME280;57728;50.448;18.824;2022-09-16T02:17:40;96935.97;;;11.73;82.44
67397;BME280;57728;50.448;18.824;2022-09-16T02:22:12;96927.38;;;11.71;81.80
67397;BME280;57728;50.448;18.824;2022-09-16T02:24:21;96920.22;;;11.67;81.64
67397;BME280;57728;50.448;18.824;2022-09-16T02:26:29;96930.06;;;11.71;81.43
67397;BME280;57728;50.448;18.824;2022-09-16T02:28:41;96935.78;;;11.70;80.79
67397;BME280;57728;50.448;18.824;2022-09-16T02:30:50;96928.00;;;11.68;80.52
67397;BME280;57728;50.448;18.824;2022-09-16T02:33:03;96932.91;;;11.66;80.62
67397;BME280;57728;50.448;18.824;2022-09-16T02:35:14;96929.44;;;11.66;80.31
67397;BME280;57728;50.448;18.824;2022-09-16T02:39:38;96945.78;;;11.61;79.91
67397;BME280;57728;50.448;18.824;2022-09-16T02:41:47;96950.03;;;11.62;79.80
67397;BME280;57728;50.448;18.824;2022-09-16T02:43:48;96945.44;;;11.62;79.38
67397;BME280;57728;50.448;18.824;2022-09-16T02:51:05;96948.59;;;11.64;77.71
67397;BME280;57728;50.448;18.824;2022-09-16T02:53:35;96945.13;;;11.64;77.75
67397;BME280;57728;50.448;18.824;2022-09-16T02:55:53;96947.34;;;11.62;77.53
67397;BME280;57728;50.448;18.824;2022-09-16T02:58:00;96949.09;;;11.57;77.71
67397;BME280;57728;50.448;18.824;2022-09-16T03:00:04;96951.59;;;11.54;77.36
67397;BME280;57728;50.448;18.824;2022-09-16T03:02:06;96948.25;;;11.48;77.27
67397;BME280;57728;50.448;18.824;2022-09-16T03:04:09;96944.25;;;11.37;77.34
67397;BME280;57728;50.448;18.824;2022-09-16T03:06:26;96951.56;;;11.37;77.01
67397;BME280;57728;50.448;18.824;2022-09-16T03:08:28;96940.41;;;11.29;77.30
67397;BME280;57728;50.448;18.824;2022-09-16T03:10:44;96937.06;;;11.24;77.28
67397;BME280;57728;50.448;18.824;2022-09-16T03:13:12;96941.34;;;11.25;77.32
67397;BME280;57728;50.448;18.824;2022-09-16T03:15:50;96934.69;;;11.22;77.36
67397;BME280;57728;50.448;18.824;2022-09-16T03:18:31;96936.09;;;11.20;77.63
67397;BME280;57728;50.448;18.824;2022-09-16T03:28:43;96931.13;;;11.04;77.68
67397;BME280;57728;50.448;18.824;2022-09-16T03:33:10;96938.53;;;10.99;77.81
67397;BME280;57728;50.448;18.824;2022-09-16T03:35:37;96930.75;;;10.97;77.92
67397;BME280;57728;50.448;18.824;2022-09-16T03:37:45;96943.75;;;10.95;77.95
67397;BME280;57728;50.448;18.824;2022-09-16T03:39:54;96940.25;;;10.95;78.19
67397;BME280;57728;50.448;18.824;2022-09-16T03:42:02;96931.38;;;10.94;78.66
67397;BME280;57728;50.448;18.824;2022-09-16T03:44:07;96936.75;;;10.94;78.25
67397;BME280;57728;50.448;18.824;2022-09-16T03:46:10;96938.66;;;10.94;78.71
67397;BME280;57728;50.448;18.824;2022-09-16T03:48:13;96944.38;;;10.92;78.99
67397;BME280;57728;50.448;18.824;2022-09-16T03:50:15;96940.84;;;10.92;78.73
67397;BME280;57728;50.448;18.824;2022-09-16T03:52:17;96942.47;;;10.93;78.58
67397;BME280;57728;50.448;18.824;2022-09-16T03:54:20;96939.00;;;10.92;78.71
67397;BME280;57728;50.448;18.824;2022-09-16T03:56:22;96940.06;;;10.91;78.49
67397;BME280;57728;50.448;18.824;2022-09-16T03:58:24;96931.19;;;10.91;78.64
67397;BME280;57728;50.448;18.824;2022-09-16T04:00:26;96930.41;;;10.90;78.76
67397;BME280;57728;50.448;18.824;2022-09-16T04:02:28;96923.91;;;10.91;78.50
67397;BME280;57728;50.448;18.824;2022-09-16T04:04:29;96933.09;;;10.90;78.02
67397;BME280;57728;50.448;18.824;2022-09-16T04:06:31;96943.38;;;10.88;77.94
67397;BME280;57728;50.448;18.824;2022-09-16T04:08:32;96939.09;;;10.87;77.77
67397;BME280;57728;50.448;18.824;2022-09-16T04:10:33;96928.31;;;10.87;77.66
67397;BME280;57728;50.448;18.824;2022-09-16T04:12:36;96932.00;;;10.91;77.61
67397;BME280;57728;50.448;18.824;2022-09-16T04:14:37;96930.91;;;10.92;77.43
67397;BME280;57728;50.448;18.824;2022-09-16T04:16:38;96926.50;;;10.96;77.24
67397;BME280;57728;50.448;18.824;2022-09-16T04:18:40;96926.34;;;11.01;77.16
67397;BME280;57728;50.448;18.824;2022-09-16T04:20:41;96924.00;;;11.08;76.59
67397;BME280;57728;50.448;18.824;2022-09-16T04:22:42;96927.66;;;11.13;76.68
67397;BME280;57728;50.448;18.824;2022-09-16T04:24:44;96929.72;;;11.16;76.42
67397;BME280;57728;50.448;18.824;2022-09-16T04:26:45;96920.56;;;11.17;76.06
67397;BME280;57728;50.448;18.824;2022-09-16T04:28:46;96927.19;;;11.19;75.98
67397;BME280;57728;50.448;18.824;2022-09-16T04:30:49;96924.69;;;11.23;76.14
67397;BME280;57728;50.448;18.824;2022-09-16T04:32:54;96926.75;;;11.26;75.87
67397;BME280;57728;50.448;18.824;2022-09-16T04:34:56;96931.53;;;11.29;75.39
67397;BME280;57728;50.448;18.824;2022-09-16T04:36:58;96936.28;;;11.32;75.54
67397;BME280;57728;50.448;18.824;2022-09-16T04:38:59;96934.09;;;11.34;75.73
67397;BME280;57728;50.448;18.824;2022-09-16T04:41:03;96939.66;;;11.38;75.16
67397;BME280;57728;50.448;18.824;2022-09-16T04:43:09;96936.63;;;11.39;75.04
67397;BME280;57728;50.448;18.824;2022-09-16T04:45:10;96930.13;;;11.40;74.81
67397;BME280;57728;50.448;18.824;2022-09-16T04:47:12;96935.69;;;11.44;74.37
67397;BME280;57728;50.448;18.824;2022-09-16T04:49:14;96931.28;;;11.48;74.28
67397;BME280;57728;50.448;18.824;2022-09-16T04:51:17;96919.22;;;11.45;74.42
67397;BME280;57728;50.448;18.824;2022-09-16T04:53:20;96924.13;;;11.52;74.18
67397;BME280;57728;50.448;18.824;2022-09-16T04:55:22;96914.63;;;11.54;74.78
67397;BME280;57728;50.448;18.824;2022-09-16T04:57:24;96920.53;;;11.56;74.17
67397;BME280;57728;50.448;18.824;2022-09-16T04:59:25;96924.31;;;11.55;74.87
67397;BME280;57728;50.448;18.824;2022-09-16T05:01:29;96928.28;;;11.58;74.71
67397;BME280;57728;50.448;18.824;2022-09-16T05:03:32;96939.09;;;11.58;74.26
67397;BME280;57728;50.448;18.824;2022-09-16T05:05:33;96937.19;;;11.58;74.26
67397;BME280;57728;50.448;18.824;2022-09-16T05:07:35;96943.69;;;11.57;74.41
67397;BME280;57728;50.448;18.824;2022-09-16T05:09:36;96934.81;;;11.57;74.24
67397;BME280;57728;50.448;18.824;2022-09-16T05:11:39;96927.00;;;11.55;74.29
67397;BME280;57728;50.448;18.824;2022-09-16T05:13:41;96925.78;;;11.62;73.98
67397;BME280;57728;50.448;18.824;2022-09-16T05:15:42;96932.41;;;11.64;74.01
67397;BME280;57728;50.448;18.824;2022-09-16T05:17:43;96936.06;;;11.68;73.55
67397;BME280;57728;50.448;18.824;2022-09-16T05:19:46;96938.84;;;11.77;73.85
67397;BME280;57728;50.448;18.824;2022-09-16T05:21:47;96938.06;;;11.85;73.58
67397;BME280;57728;50.448;18.824;2022-09-16T05:23:50;96951.56;;;11.94;72.89
67397;BME280;57728;50.448;18.824;2022-09-16T05:25:52;96943.31;;;11.99;72.98
67397;BME280;57728;50.448;18.824;2022-09-16T05:27:54;96936.19;;;12.03;72.57
67397;BME280;57728;50.448;18.824;2022-09-16T05:29:55;96924.59;;;12.02;72.36
67397;BME280;57728;50.448;18.824;2022-09-16T05:31:57;96926.34;;;12.07;72.27
67397;BME280;57728;50.448;18.824;2022-09-16T05:34:04;96928.72;;;12.08;72.46
67397;BME280;57728;50.448;18.824;2022-09-16T05:36:12;96926.16;;;12.12;72.76
67397;BME280;57728;50.448;18.824;2022-09-16T05:38:16;96938.88;;;12.20;72.54
67397;BME280;57728;50.448;18.824;2022-09-16T05:40:17;96937.78;;;12.21;72.31
67397;BME280;57728;50.448;18.824;2022-09-16T05:42:18;96936.03;;;12.25;72.83
67397;BME280;57728;50.448;18.824;2022-09-16T05:44:20;96927.28;;;12.28;72.52
67397;BME280;57728;50.448;18.824;2022-09-16T05:46:23;96932.84;;;12.32;72.48
67397;BME280;57728;50.448;18.824;2022-09-16T05:48:25;96932.72;;;12.37;72.31
67397;BME280;57728;50.448;18.824;2022-09-16T05:50:28;96925.06;;;12.39;72.12
67397;BME280;57728;50.448;18.824;2022-09-16T05:52:29;96924.59;;;12.37;71.59
67397;BME280;57728;50.448;18.824;2022-09-16T05:54:30;96932.53;;;12.33;71.88
67397;BME280;57728;50.448;18.824;2022-09-16T05:56:32;96931.59;;;12.29;72.00
67397;BME280;57728;50.448;18.824;2022-09-16T05:58:34;96938.41;;;12.27;72.68
67397;BME280;57728;50.448;18.824;2022-09-16T06:00:36;96934.75;;;12.23;72.47
67397;BME280;57728;50.448;18.824;2022-09-16T06:02:37;96933.19;;;12.22;72.48
67397;BME280;57728;50.448;18.824;2022-09-16T06:04:39;96935.88;;;12.22;72.94
67397;BME280;57728;50.448;18.824;2022-09-16T06:06:42;96933.19;;;12.22;72.52
67397;BME280;57728;50.448;18.824;2022-09-16T06:08:45;96930.16;;;12.23;73.27
67397;BME280;57728;50.448;18.824;2022-09-16T06:10:46;96932.56;;;12.25;73.09
67397;BME280;57728;50.448;18.824;2022-09-16T06:12:47;96942.88;;;12.23;72.95
67397;BME280;57728;50.448;18.824;2022-09-16T06:14:49;96943.81;;;12.18;73.32
67397;BME280;57728;50.448;18.824;2022-09-16T06:16:50;96938.25;;;12.15;73.62
67397;BME280;57728;50.448;18.824;2022-09-16T06:18:55;96954.13;;;12.07;73.80
67397;BME280;57728;50.448;18.824;2022-09-16T06:21:03;96953.66;;;12.05;74.62
67397;BME280;57728;50.448;18.824;2022-09-16T06:23:08;96940.94;;;12.06;74.75
67397;BME280;57728;50.448;18.824;2022-09-16T06:25:09;96937.63;;;12.09;74.91
67397;BME280;57728;50.448;18.824;2022-09-16T06:27:12;96910.13;;;11.98;74.82
67397;BME280;57728;50.448;18.824;2022-09-16T06:29:15;96929.84;;;12.25;74.55
67397;BME280;57728;50.448;18.824;2022-09-16T06:33:26;96935.88;;;12.39;74.18
67397;BME280;57728;50.448;18.824;2022-09-16T06:35:28;96930.16;;;12.49;73.57
67397;BME280;57728;50.448;18.824;2022-09-16T06:37:29;96930.13;;;12.58;73.72
67397;BME280;57728;50.448;18.824;2022-09-16T06:39:31;96931.69;;;12.68;72.94
67397;BME280;57728;50.448;18.824;2022-09-16T06:41:33;96930.75;;;12.72;72.46
67397;BME280;57728;50.448;18.824;2022-09-16T06:43:36;96934.88;;;12.78;72.16
67397;BME280;57728;50.448;18.824;2022-09-16T06:45:38;96937.56;;;12.87;71.95
67397;BME280;57728;50.448;18.824;2022-09-16T06:47:40;96925.78;;;12.83;70.99
67397;BME280;57728;50.448;18.824;2022-09-16T06:49:41;96943.44;;;12.89;70.94
67397;BME280;57728;50.448;18.824;2022-09-16T06:51:43;96943.91;;;12.91;70.61
67397;BME280;57728;50.448;18.824;2022-09-16T06:53:45;96941.50;;;12.98;70.04
67397;BME280;57728;50.448;18.824;2022-09-16T06:55:46;96941.03;;;13.05;69.84
67397;BME280;57728;50.448;18.824;2022-09-16T06:57:48;96935.47;;;13.10;69.10
67397;BME280;57728;50.448;18.824;2022-09-16T06:59:51;96944.00;;;13.21;69.08
67397;BME280;57728;50.448;18.824;2022-09-16T07:01:52;96939.69;;;13.28;68.71
67397;BME280;57728;50.448;18.824;2022-09-16T07:03:56;96933.63;;;13.31;68.07
67397;BME280;57728;50.448;18.824;2022-09-16T07:06:00;96933.28;;;13.33;67.84
67397;BME280;57728;50.448;18.824;2022-09-16T07:08:01;96939.38;;;13.30;67.25
67397;BME280;57728;50.448;18.824;2022-09-16T07:10:05;96936.81;;;13.25;67.61
67397;BME280;57728;50.448;18.824;2022-09-16T07:12:07;96938.44;;;13.26;68.30
67397;BME280;57728;50.448;18.824;2022-09-16T07:14:09;96938.38;;;13.35;68.16
67397;BME280;57728;50.448;18.824;2022-09-16T07:16:16;96950.16;;;13.39;67.72
67397;BME280;57728;50.448;18.824;2022-09-16T07:18:19;96945.69;;;13.43;67.15
67397;BME280;57728;50.448;18.824;2022-09-16T07:20:20;96955.22;;;13.40;66.82
67397;BME280;57728;50.448;18.824;2022-09-16T07:22:30;96946.81;;;13.33;66.78
67397;BME280;57728;50.448;18.824;2022-09-16T07:24:52;96942.72;;;13.27;66.57
67397;BME280;57728;50.448;18.824;2022-09-16T07:26:54;96949.25;;;13.26;67.64
67397;BME280;57728;50.448;18.824;2022-09-16T07:28:58;96949.72;;;13.28;67.34
67397;BME280;57728;50.448;18.824;2022-09-16T07:31:04;96954.94;;;13.33;67.06
67397;BME280;57728;50.448;18.824;2022-09-16T07:33:07;96939.63;;;13.46;67.00
67397;BME280;57728;50.448;18.824;2022-09-16T07:35:08;96938.09;;;13.57;66.59
67397;BME280;57728;50.448;18.824;2022-09-16T07:37:10;96947.59;;;13.72;66.18
67397;BME280;57728;50.448;18.824;2022-09-16T07:39:14;96943.06;;;13.85;65.67
67397;BME280;57728;50.448;18.824;2022-09-16T07:41:20;96943.13;;;13.97;65.51
67397;BME280;57728;50.448;18.824;2022-09-16T07:43:23;96937.34;;;14.07;65.38
67397;BME280;57728;50.448;18.824;2022-09-16T07:45:24;96942.72;;;14.16;64.38
67397;BME280;57728;50.448;18.824;2022-09-16T07:47:28;96948.22;;;14.28;64.84
67397;BME280;57728;50.448;18.824;2022-09-16T07:49:29;96944.06;;;14.31;64.36
67397;BME280;57728;50.448;18.824;2022-09-16T07:51:32;96953.34;;;14.42;64.52
67397;BME280;57728;50.448;18.824;2022-09-16T07:53:35;96957.13;;;14.49;64.03
67397;BME280;57728;50.448;18.824;2022-09-16T07:55:37;96954.88;;;14.51;63.35
67397;BME280;57728;50.448;18.824;2022-09-16T07:57:38;96952.81;;;14.48;63.37
67397;BME280;57728;50.448;18.824;2022-09-16T07:59:40;96969.75;;;14.66;64.21
67397;BME280;57728;50.448;18.824;2022-09-16T08:01:41;96969.84;;;14.70;63.07
67397;BME280;57728;50.448;18.824;2022-09-16T08:03:43;96961.81;;;14.61;63.14
67397;BME280;57728;50.448;18.824;2022-09-16T08:05:46;96966.91;;;14.63;63.09
67397;BME280;57728;50.448;18.824;2022-09-16T08:07:47;96985.09;;;14.62;62.89
67397;BME280;57728;50.448;18.824;2022-09-16T08:09:48;96970.13;;;14.56;63.00
67397;BME280;57728;50.448;18.824;2022-09-16T08:11:50;96983.13;;;14.50;62.33
67397;BME280;57728;50.448;18.824;2022-09-16T08:13:52;96967.16;;;14.49;62.68
67397;BME280;57728;50.448;18.824;2022-09-16T08:15:54;96982.03;;;14.64;63.31
67397;BME280;57728;50.448;18.824;2022-09-16T08:18:00;96988.91;;;14.61;62.16
67397;BME280;57728;50.448;18.824;2022-09-16T08:20:02;96962.75;;;14.44;62.54
67397;BME280;57728;50.448;18.824;2022-09-16T08:22:06;96989.13;;;14.56;62.73
67397;BME280;57728;50.448;18.824;2022-09-16T08:24:08;96980.53;;;14.54;63.41
67397;BME280;57728;50.448;18.824;2022-09-16T08:26:13;96979.97;;;14.61;63.12
67397;BME280;57728;50.448;18.824;2022-09-16T08:28:16;96982.38;;;14.62;63.36
67397;BME280;57728;50.448;18.824;2022-09-16T08:30:18;96981.69;;;14.65;62.51
67397;BME280;57728;50.448;18.824;2022-09-16T08:32:19;96986.31;;;14.65;61.73
67397;BME280;57728;50.448;18.824;2022-09-16T08:34:21;96986.25;;;14.73;62.53
67397;BME280;57728;50.448;18.824;2022-09-16T08:36:24;96977.50;;;14.89;62.33
67397;BME280;57728;50.448;18.824;2022-09-16T08:38:27;96972.59;;;15.03;61.82
67397;BME280;57728;50.448;18.824;2022-09-16T08:40:33;96975.09;;;15.20;61.04
67397;BME280;57728;50.448;18.824;2022-09-16T08:45:17;96981.25;;;15.42;60.45
67397;BME280;57728;50.448;18.824;2022-09-16T08:50:15;96981.75;;;15.68;56.46
67397;BME280;57728;50.448;18.824;2022-09-16T08:52:31;96981.09;;;15.71;55.61
67397;BME280;57728;50.448;18.824;2022-09-16T08:54:47;96977.09;;;15.69;55.75
67397;BME280;57728;50.448;18.824;2022-09-16T08:57:00;96983.13;;;15.99;55.18
67397;BME280;57728;50.448;18.824;2022-09-16T08:59:11;96984.31;;;16.26;54.41
67397;BME280;57728;50.448;18.824;2022-09-16T09:01:35;96987.56;;;16.56;54.21
67397;BME280;57728;50.448;18.824;2022-09-16T09:03:45;96984.69;;;16.65;53.42
67397;BME280;57728;50.448;18.824;2022-09-16T09:05:53;96988.97;;;16.94;52.54
67397;BME280;57728;50.448;18.824;2022-09-16T09:10:38;96981.13;;;16.77;52.35
67397;BME280;57728;50.448;18.824;2022-09-16T09:15:40;96981.03;;;16.20;52.33
67397;BME280;57728;50.448;18.824;2022-09-16T09:23:38;96984.59;;;15.60;54.46
67397;BME280;57728;50.448;18.824;2022-09-16T09:28:59;96991.75;;;16.82;52.07
67397;BME280;57728;50.448;18.824;2022-09-16T09:34:24;96980.00;;;16.78;51.51
67397;BME280;57728;50.448;18.824;2022-09-16T09:42:31;96975.31;;;17.06;50.29
67397;BME280;57728;50.448;18.824;2022-09-16T09:44:49;96974.16;;;17.07;49.98
67397;BME280;57728;50.448;18.824;2022-09-16T09:47:00;96984.19;;;17.19;49.83
67397;BME280;57728;50.448;18.824;2022-09-16T09:49:14;96966.63;;;17.29;50.41
67397;BME280;57728;50.448;18.824;2022-09-16T09:51:32;96977.84;;;17.59;47.94
67397;BME280;57728;50.448;18.824;2022-09-16T09:53:51;96973.66;;;17.45;47.06
67397;BME280;57728;50.448;18.824;2022-09-16T09:56:20;96975.66;;;17.33;47.39
67397;BME280;57728;50.448;18.824;2022-09-16T10:00:37;96979.97;;;17.49;47.04
67397;BME280;57728;50.448;18.824;2022-09-16T10:02:41;96960.22;;;17.53;47.28
67397;BME280;57728;50.448;18.824;2022-09-16T10:04:44;96965.44;;;17.93;47.45
67397;BME280;57728;50.448;18.824;2022-09-16T10:06:48;96971.00;;;18.32;46.67
67397;BME280;57728;50.448;18.824;2022-09-16T10:08:56;96968.44;;;19.39;44.86
67397;BME280;57728;50.448;18.824;2022-09-16T10:11:02;96975.59;;;20.20;42.55
67397;BME280;57728;50.448;18.824;2022-09-16T10:13:14;96966.38;;;20.92;41.81
67397;BME280;57728;50.448;18.824;2022-09-16T10:15:27;96964.13;;;21.83;38.86
67397;BME280;57728;50.448;18.824;2022-09-16T10:17:30;96953.63;;;21.96;37.02
67397;BME280;57728;50.448;18.824;2022-09-16T10:22:10;96962.75;;;22.83;36.20
67397;BME280;57728;50.448;18.824;2022-09-16T10:24:34;96959.69;;;23.10;34.86
67397;BME280;57728;50.448;18.824;2022-09-16T10:26:39;96961.50;;;22.63;34.38
67397;BME280;57728;50.448;18.824;2022-09-16T10:28:52;96957.34;;;21.66;35.55
67397;BME280;57728;50.448;18.824;2022-09-16T10:30:57;96955.34;;;21.63;37.40
67397;BME280;57728;50.448;18.824;2022-09-16T10:33:06;96950.16;;;22.02;37.22
67397;BME280;57728;50.448;18.824;2022-09-16T10:35:19;96951.94;;;21.36;37.87
67397;BME280;57728;50.448;18.824;2022-09-16T10:37:23;96960.78;;;20.81;38.88
67397;BME280;57728;50.448;18.824;2022-09-16T10:39:29;96960.72;;;20.17;39.39
67397;BME280;57728;50.448;18.824;2022-09-16T10:41:41;96956.41;;;19.67;41.15
67397;BME280;57728;50.448;18.824;2022-09-16T10:43:52;96957.63;;;19.69;41.33
67397;BME280;57728;50.448;18.824;2022-09-16T10:45:57;96954.09;;;20.18;41.14
67397;BME280;57728;50.448;18.824;2022-09-16T10:48:05;96960.88;;;21.26;40.91
67397;BME280;57728;50.448;18.824;2022-09-16T10:50:17;96949.34;;;21.98;39.51
67397;BME280;57728;50.448;18.824;2022-09-16T10:52:25;96948.53;;;21.94;38.04
67397;BME280;57728;50.448;18.824;2022-09-16T10:54:29;96952.44;;;21.45;38.11
67397;BME280;57728;50.448;18.824;2022-09-16T10:56:54;96951.75;;;21.14;39.94
67397;BME280;57728;50.448;18.824;2022-09-16T10:59:10;96956.50;;;20.84;40.25
67397;BME280;57728;50.448;18.824;2022-09-16T11:11:10;96936.22;;;19.49;41.84
67397;BME280;57728;50.448;18.824;2022-09-16T11:16:02;96948.47;;;18.35;45.01
67397;BME280;57728;50.448;18.824;2022-09-16T11:52:24;96907.59;;;25.53;30.21
67397;BME280;57728;50.448;18.824;2022-09-16T12:00:21;96894.22;;;26.69;27.48
67397;BME280;57728;50.448;18.824;2022-09-16T12:02:37;96900.25;;;26.26;27.33
67397;BME280;57728;50.448;18.824;2022-09-16T12:05:12;96895.47;;;26.30;27.20
67397;BME280;57728;50.448;18.824;2022-09-16T12:10:24;96892.19;;;26.39;27.47
67397;BME280;57728;50.448;18.824;2022-09-16T12:12:35;96893.44;;;26.34;26.87
67397;BME280;57728;50.448;18.824;2022-09-16T12:14:47;96897.13;;;25.30;28.64
67397;BME280;57728;50.448;18.824;2022-09-16T12:17:00;96891.75;;;24.21;30.77
67397;BME280;57728;50.448;18.824;2022-09-16T12:19:36;96900.72;;;22.68;33.03
67397;BME280;57728;50.448;18.824;2022-09-16T12:21:55;96901.16;;;21.42;35.57
67397;BME280;57728;50.448;18.824;2022-09-16T12:24:26;96908.53;;;20.30;38.08
67397;BME280;57728;50.448;18.824;2022-09-16T12:26:54;96894.34;;;19.18;39.83
67397;BME280;57728;50.448;18.824;2022-09-16T12:29:14;96901.69;;;18.33;41.68
67397;BME280;57728;50.448;18.824;2022-09-16T12:33:43;96909.09;;;17.30;46.16
67397;BME280;57728;50.448;18.824;2022-09-16T12:36:01;96922.72;;;16.86;46.84
67397;BME280;57728;50.448;18.824;2022-09-16T12:38:15;96927.13;;;16.35;49.58
67397;BME280;57728;50.448;18.824;2022-09-16T12:40:25;96935.03;;;15.87;50.52
67397;BME280;57728;50.448;18.824;2022-09-16T12:55:44;96922.69;;;15.77;58.16
67397;BME280;57728;50.448;18.824;2022-09-16T13:03:15;96910.38;;;15.56;56.04
67397;BME280;57728;50.448;18.824;2022-09-16T13:05:33;96914.91;;;15.51;57.15
67397;BME280;57728;50.448;18.824;2022-09-16T13:07:36;96909.47;;;15.64;57.08
67397;BME280;57728;50.448;18.824;2022-09-16T13:09:40;96907.16;;;15.78;56.99
67397;BME280;57728;50.448;18.824;2022-09-16T13:12:00;96912.94;;;15.89;56.50
67397;BME280;57728;50.448;18.824;2022-09-16T13:14:20;96906.78;;;16.16;57.85
67397;BME280;57728;50.448;18.824;2022-09-16T13:16:34;96911.06;;;16.30;56.34
67397;BME280;57728;50.448;18.824;2022-09-16T13:18:41;96911.84;;;16.30;56.12
67397;BME280;57728;50.448;18.824;2022-09-16T13:20:55;96920.47;;;16.32;56.73
67397;BME280;57728;50.448;18.824;2022-09-16T13:23:10;96916.25;;;16.22;55.29
67397;BME280;57728;50.448;18.824;2022-09-16T13:25:28;96924.91;;;16.12;55.29
67397;BME280;57728;50.448;18.824;2022-09-16T13:28:01;96923.03;;;15.76;54.49
67397;BME280;57728;50.448;18.824;2022-09-16T13:30:40;96917.03;;;15.46;54.82
67397;BME280;57728;50.448;18.824;2022-09-16T13:35:03;96908.59;;;15.02;55.79
67397;BME280;57728;50.448;18.824;2022-09-16T13:37:26;96909.47;;;14.94;56.70
67397;BME280;57728;50.448;18.824;2022-09-16T13:39:33;96896.50;;;14.87;56.94
67397;BME280;57728;50.448;18.824;2022-09-16T13:45:45;96897.19;;;15.09;56.61
67397;BME280;57728;50.448;18.824;2022-09-16T13:47:50;96892.84;;;15.41;55.41
67397;BME280;57728;50.448;18.824;2022-09-16T13:49:59;96894.97;;;15.84;55.66
67397;BME280;57728;50.448;18.824;2022-09-16T13:52:12;96895.75;;;16.37;54.65